createdAt,value
2022-08-04T00:02:11.259Z,66.52
2022-08-04T00:07:44.775Z,66.48
2022-08-04T00:12:51.264Z,66.45
2022-08-04T00:18:04.978Z,66.38
2022-08-04T00:23:09.759Z,66.63
2022-08-04T00:28:13.973Z,66.73
2022-08-04T00:33:21.072Z,66.66
2022-08-04T00:38:25.850Z,66.83
2022-08-04T00:44:04.403Z,66.72
2022-08-04T00:49:28.342Z,66.90
2022-08-04T00:54:38.512Z,66.79
2022-08-04T01:00:02.959Z,66.96
2022-08-04T01:05:37.970Z,66.81
2022-08-04T01:10:59.151Z,66.84
2022-08-04T01:16:08.294Z,67.01
2022-08-04T01:21:29.507Z,66.87
2022-08-04T01:26:42.512Z,66.93
2022-08-04T01:31:58.409Z,67.08
2022-08-04T01:37:56.075Z,67.09
2022-08-04T01:43:02.221Z,67.36
2022-08-04T01:48:07.947Z,67.50
2022-08-04T01:53:11.542Z,67.29
2022-08-04T01:58:18.297Z,67.25
2022-08-04T02:03:21.316Z,67.04
2022-08-04T02:09:08.150Z,67.03
2022-08-04T02:14:42.986Z,67.26
2022-08-04T02:19:48.729Z,67.25
2022-08-04T02:25:05.231Z,67.64
2022-08-04T02:30:09.161Z,67.75
2022-08-04T02:35:20.915Z,67.68
2022-08-04T02:40:26.857Z,67.54
2022-08-04T02:45:32.259Z,67.56
2022-08-04T02:50:37.516Z,67.62
2022-08-04T02:55:50.448Z,67.65
2022-08-04T03:00:54.515Z,67.78
2022-08-04T03:06:41.784Z,67.74
2022-08-04T03:12:23.041Z,67.72
2022-08-04T03:17:53.814Z,67.61
2022-08-04T03:23:50.828Z,67.70
2022-08-04T03:29:36.418Z,67.74
2022-08-04T03:35:47.514Z,68.27
2022-08-04T03:41:50.857Z,68.42
2022-08-04T03:46:46.774Z,68.20
2022-08-04T03:52:27.416Z,68.21
2022-08-04T03:58:30.637Z,68.27
2022-08-04T04:04:09.574Z,68.17
2022-08-04T04:09:58.001Z,68.23
2022-08-04T04:15:31.504Z,68.32
2022-08-04T04:21:14.260Z,68.53
2022-08-04T04:26:35.038Z,68.27
2022-08-04T04:32:03.091Z,67.93
2022-08-04T04:37:51.250Z,67.92
2022-08-04T04:43:11.947Z,68.16
2022-08-04T04:48:48.758Z,68.56
2022-08-04T04:54:00.594Z,68.40
2022-08-04T04:59:10.246Z,68.28
2022-08-04T05:04:35.035Z,68.51
2022-08-04T05:10:34.687Z,68.64
2022-08-04T05:15:43.517Z,68.81
2022-08-04T05:20:57.456Z,68.73
2022-08-04T05:26:09.023Z,68.75
2022-08-04T05:31:19.177Z,68.08
2022-08-04T05:36:41.091Z,68.04
2022-08-04T05:41:48.134Z,68.21
2022-08-04T05:46:59.335Z,67.64
2022-08-04T05:52:04.827Z,67.54
2022-08-04T05:57:10.028Z,67.74
2022-08-04T06:02:18.011Z,66.68
2022-08-04T06:07:21.719Z,65.03
2022-08-04T06:12:36.441Z,63.03
2022-08-04T06:18:33.814Z,62.24
2022-08-04T06:23:15.243Z,61.02
2022-08-04T06:28:20.132Z,59.94
2022-08-04T06:33:54.252Z,59.58
2022-08-04T06:39:01.417Z,59.28
2022-08-04T06:44:10.180Z,58.01
2022-08-04T06:49:14.157Z,56.91
2022-08-04T06:54:17.240Z,57.20
2022-08-04T06:59:24.445Z,57.44
2022-08-04T07:04:28.379Z,55.91
2022-08-04T07:09:32.004Z,54.31
2022-08-04T07:14:36.679Z,54.23
2022-08-04T07:19:39.709Z,53.21
2022-08-04T07:24:43.313Z,53.42
2022-08-04T07:29:48.418Z,53.97
2022-08-04T07:34:52.748Z,53.62
2022-08-04T07:39:56.420Z,51.93
2022-08-04T07:44:59.842Z,52.11
2022-08-04T07:50:04.571Z,52.28
2022-08-04T07:55:08.482Z,51.33
2022-08-04T08:00:15.199Z,50.48
2022-08-04T08:05:20.629Z,51.67
2022-08-04T08:10:25.563Z,50.51
2022-08-04T08:15:29.097Z,50.78
2022-08-04T08:20:35.593Z,50.91
2022-08-04T08:25:38.993Z,48.66
2022-08-04T08:30:41.998Z,48.23
2022-08-04T08:36:03.743Z,48.88
2022-08-04T08:41:18.971Z,46.81
2022-08-04T08:46:49.889Z,47.53
2022-08-04T08:52:05.112Z,47.81
2022-08-04T08:57:59.550Z,47.77
2022-08-04T09:03:34.412Z,46.45
2022-08-04T09:08:46.212Z,46.08
2022-08-04T09:13:57.339Z,45.64
2022-08-04T09:19:38.766Z,44.84
2022-08-04T09:25:09.079Z,46.14
2022-08-04T09:30:17.705Z,47.40
2022-08-04T09:35:49.173Z,46.70
2022-08-04T09:41:40.107Z,47.66
2022-08-04T09:47:00.194Z,48.26
2022-08-04T09:52:31.280Z,47.00
2022-08-04T09:57:53.645Z,45.49
2022-08-04T10:03:01.215Z,45.06
2022-08-04T10:08:18.795Z,46.35
2022-08-04T10:14:27.065Z,47.04
2022-08-04T10:19:37.710Z,44.57
2022-08-04T10:25:37.444Z,44.47
2022-08-04T10:31:01.651Z,43.81
2022-08-04T10:36:13.441Z,45.68
2022-08-04T10:41:42.646Z,46.37
2022-08-04T10:46:55.956Z,44.80
2022-08-04T10:52:17.077Z,44.10
2022-08-04T10:57:33.251Z,43.06
2022-08-04T11:02:45.191Z,43.41
2022-08-04T11:07:54.090Z,42.27
2022-08-04T11:13:29.819Z,42.59
2022-08-04T11:19:09.062Z,43.25
2022-08-04T11:24:34.091Z,44.90
2022-08-04T11:30:07.489Z,43.99
2022-08-04T11:35:26.595Z,42.66
2022-08-04T11:41:02.865Z,41.98
2022-08-04T11:46:18.624Z,42.01
2022-08-04T11:51:23.590Z,41.40
2022-08-04T11:56:37.194Z,41.96
2022-08-04T12:01:44.011Z,41.42
2022-08-04T12:13:21.511Z,41.46
2022-08-04T12:18:43.359Z,42.48
2022-08-04T12:23:49.838Z,42.11
2022-08-04T12:29:11.504Z,43.20
2022-08-04T12:34:31.116Z,41.05
2022-08-04T12:40:21.313Z,40.90
2022-08-04T12:45:09.274Z,39.88
2022-08-04T12:50:16.870Z,39.91
2022-08-04T12:55:24.364Z,40.28
2022-08-04T13:00:40.015Z,40.15
2022-08-04T13:05:45.819Z,39.30
2022-08-04T13:10:53.924Z,39.37
2022-08-04T13:15:59.841Z,39.19
2022-08-04T13:22:02.312Z,39.87
2022-08-04T13:27:16.422Z,40.48
2022-08-04T13:32:23.875Z,40.55
2022-08-04T13:37:37.328Z,39.41
2022-08-04T13:42:46.706Z,39.48
2022-08-04T13:47:58.434Z,39.90
2022-08-04T13:53:21.998Z,39.23
2022-08-04T13:58:26.725Z,39.15
2022-08-04T14:03:53.367Z,38.47
2022-08-04T14:09:19.957Z,39.86
2022-08-04T14:14:28.479Z,39.83
2022-08-04T14:19:46.669Z,38.91
2022-08-04T14:25:04.501Z,38.72
2022-08-04T14:30:35.480Z,38.47
2022-08-04T14:35:50.195Z,37.96
2022-08-04T14:41:00.076Z,37.71
2022-08-04T14:46:06.196Z,37.30
2022-08-04T14:51:17.007Z,36.41
2022-08-04T14:56:46.917Z,36.97
2022-08-04T15:02:00.351Z,37.68
2022-08-04T15:07:05.494Z,37.65
2022-08-04T15:12:10.642Z,37.88
2022-08-04T15:17:29.362Z,37.63
2022-08-04T15:22:33.864Z,37.88
2022-08-04T15:27:40.733Z,38.76
2022-08-04T15:32:52.278Z,39.14
2022-08-04T15:37:58.824Z,38.03
2022-08-04T15:43:16.505Z,38.91
2022-08-04T15:48:20.233Z,38.46
2022-08-04T15:53:23.749Z,38.03
2022-08-04T15:58:55.290Z,38.16
2022-08-04T16:04:01.429Z,38.64
2022-08-04T16:09:05.565Z,38.74
2022-08-04T16:14:10.982Z,38.93
2022-08-04T16:20:01.994Z,39.10
2022-08-04T16:25:07.319Z,39.77
2022-08-04T16:30:15.106Z,40.37
2022-08-04T16:35:28.678Z,40.92
2022-08-04T16:40:39.058Z,41.39
2022-08-04T16:46:04.351Z,41.22
2022-08-04T16:51:10.019Z,41.77
2022-08-04T16:56:17.571Z,41.97
2022-08-04T17:01:33.034Z,42.66
2022-08-04T17:06:44.722Z,43.38
2022-08-04T17:11:48.740Z,44.01
2022-08-04T17:16:53.359Z,44.72
2022-08-04T17:22:07.449Z,44.99
2022-08-04T17:28:20.169Z,45.40
2022-08-04T17:32:36.594Z,46.10
2022-08-04T17:37:53.236Z,46.52
2022-08-04T17:44:03.180Z,47.21
2022-08-04T17:48:30.899Z,47.73
2022-08-04T17:54:02.951Z,47.67
2022-08-04T17:59:55.664Z,48.00
2022-08-04T18:05:07.661Z,49.04
2022-08-04T18:10:33.095Z,49.02
2022-08-04T18:15:40.771Z,49.85
2022-08-04T18:20:50.343Z,50.53
2022-08-04T18:25:53.533Z,50.90
2022-08-04T18:30:56.651Z,50.88
2022-08-04T18:36:37.091Z,50.88
2022-08-04T18:41:23.751Z,51.38
2022-08-04T18:46:27.264Z,52.61
2022-08-04T18:51:30.762Z,53.66
2022-08-04T18:56:37.475Z,54.01
2022-08-04T19:02:12.818Z,53.50
2022-08-04T19:07:24.541Z,53.56
2022-08-04T19:12:29.348Z,54.47
2022-08-04T19:17:53.219Z,55.19
2022-08-04T19:24:11.301Z,56.40
2022-08-04T19:28:21.705Z,56.63
2022-08-04T19:33:25.501Z,57.11
2022-08-04T19:38:35.079Z,57.80
2022-08-04T19:43:43.739Z,58.22
2022-08-04T19:49:00.395Z,58.61
2022-08-04T19:54:14.894Z,59.19
2022-08-04T19:59:20.381Z,59.53
2022-08-04T20:04:25.807Z,59.67
2022-08-04T20:09:29.025Z,59.92
2022-08-04T20:14:40.794Z,60.34
2022-08-04T20:19:51.416Z,60.62
2022-08-04T20:25:10.924Z,60.80
2022-08-04T20:30:22.062Z,61.12
2022-08-04T20:35:26.687Z,61.47
2022-08-04T20:40:30.666Z,61.77
2022-08-04T20:45:56.823Z,61.85
2022-08-04T20:50:57.025Z,62.03
2022-08-04T20:56:00.534Z,62.03
2022-08-04T21:01:03.744Z,62.13
2022-08-04T21:06:08.984Z,62.27
2022-08-04T21:11:13.463Z,62.54
2022-08-04T21:16:54.989Z,62.61
2022-08-04T21:21:41.421Z,62.89
2022-08-04T21:26:54.133Z,62.89
2022-08-04T21:32:00.113Z,62.95
2022-08-04T21:37:04.238Z,63.02
2022-08-04T21:42:29.011Z,63.15
2022-08-04T21:47:46.240Z,63.35
2022-08-04T21:52:52.208Z,63.48
2022-08-04T21:57:55.730Z,63.61
2022-08-04T22:03:03.484Z,63.68
2022-08-04T22:08:06.544Z,63.81
2022-08-04T22:13:23.010Z,64.05
2022-08-04T22:18:27.876Z,64.08
2022-08-04T22:23:45.189Z,64.23
2022-08-04T22:28:51.133Z,64.29
2022-08-04T22:33:56.148Z,64.34
2022-08-04T22:39:06.915Z,64.77
2022-08-04T22:44:15.154Z,64.88
2022-08-04T22:49:19.046Z,65.14
2022-08-04T22:54:29.597Z,65.15
2022-08-04T22:59:32.931Z,65.24
2022-08-04T23:04:36.468Z,65.13
2022-08-04T23:09:49.926Z,65.21
2022-08-04T23:14:58.000Z,65.35
2022-08-04T23:20:01.302Z,65.62
2022-08-04T23:25:04.931Z,65.78
2022-08-04T23:30:08.572Z,66.03
2022-08-04T23:35:11.840Z,66.05
2022-08-04T23:40:32.339Z,65.98
2022-08-04T23:46:04.593Z,65.89
2022-08-04T23:51:14.318Z,65.94
2022-08-04T23:56:19.587Z,66.22
